sensor_id;sensor_type;location;lat;lon;timestamp;P1;durP1;ratioP1;P2;durP2;ratioP2
39066;SDS011;24821;51.988;6.020;2023-05-15T00:00:09;7.18;;;6.47;;
39066;SDS011;24821;51.988;6.020;2023-05-15T00:02:36;10.68;;;8.07;;
39066;SDS011;24821;51.988;6.020;2023-05-15T00:05:03;11.27;;;7.85;;
39066;SDS011;24821;51.988;6.020;2023-05-15T00:07:29;11.07;;;7.05;;
39066;SDS011;24821;51.988;6.020;2023-05-15T00:09:55;11.93;;;6.32;;
39066;SDS011;24821;51.988;6.020;2023-05-15T00:12:21;8.07;;;7.15;;
39066;SDS011;24821;51.988;6.020;2023-05-15T00:14:46;10.73;;;7.88;;
39066;SDS011;24821;51.988;6.020;2023-05-15T00:17:12;7.80;;;6.60;;
39066;SDS011;24821;51.988;6.020;2023-05-15T00:19:37;9.13;;;7.07;;
39066;SDS011;24821;51.988;6.020;2023-05-15T00:22:03;12.60;;;8.18;;
39066;SDS011;24821;51.988;6.020;2023-05-15T00:24:28;9.70;;;7.15;;
39066;SDS011;24821;51.988;6.020;2023-05-15T00:26:54;9.07;;;7.50;;
39066;SDS011;24821;51.988;6.020;2023-05-15T00:29:20;7.78;;;7.05;;
39066;SDS011;24821;51.988;6.020;2023-05-15T00:31:45;8.85;;;7.60;;
39066;SDS011;24821;51.988;6.020;2023-05-15T00:34:11;12.27;;;7.05;;
39066;SDS011;24821;51.988;6.020;2023-05-15T00:36:36;8.27;;;6.63;;
39066;SDS011;24821;51.988;6.020;2023-05-15T00:39:02;16.67;;;7.00;;
39066;SDS011;24821;51.988;6.020;2023-05-15T00:41:27;7.40;;;6.70;;
39066;SDS011;24821;51.988;6.020;2023-05-15T00:43:56;8.93;;;6.68;;
39066;SDS011;24821;51.988;6.020;2023-05-15T00:46:24;7.03;;;6.22;;
39066;SDS011;24821;51.988;6.020;2023-05-15T00:48:52;10.98;;;7.07;;
39066;SDS011;24821;51.988;6.020;2023-05-15T00:51:18;12.85;;;7.20;;
39066;SDS011;24821;51.988;6.020;2023-05-15T00:53:43;10.20;;;6.45;;
39066;SDS011;24821;51.988;6.020;2023-05-15T00:56:09;10.02;;;6.68;;
39066;SDS011;24821;51.988;6.020;2023-05-15T00:58:36;6.55;;;5.78;;
39066;SDS011;24821;51.988;6.020;2023-05-15T01:01:02;13.40;;;6.75;;
39066;SDS011;24821;51.988;6.020;2023-05-15T01:03:28;7.10;;;6.40;;
39066;SDS011;24821;51.988;6.020;2023-05-15T01:05:54;9.50;;;7.40;;
39066;SDS011;24821;51.988;6.020;2023-05-15T01:08:29;10.88;;;5.90;;
39066;SDS011;24821;51.988;6.020;2023-05-15T01:11:12;10.30;;;6.63;;
39066;SDS011;24821;51.988;6.020;2023-05-15T01:13:38;6.70;;;5.90;;
39066;SDS011;24821;51.988;6.020;2023-05-15T01:16:04;10.68;;;5.93;;
39066;SDS011;24821;51.988;6.020;2023-05-15T01:18:31;8.25;;;5.72;;
39066;SDS011;24821;51.988;6.020;2023-05-15T01:21:05;6.55;;;5.72;;
39066;SDS011;24821;51.988;6.020;2023-05-15T01:31:55;6.55;;;4.93;;
39066;SDS011;24821;51.988;6.020;2023-05-15T01:34:28;8.45;;;7.55;;
39066;SDS011;24821;51.988;6.020;2023-05-15T01:37:03;7.45;;;6.00;;
39066;SDS011;24821;51.988;6.020;2023-05-15T01:39:31;6.63;;;5.78;;
39066;SDS011;24821;51.988;6.020;2023-05-15T01:42:02;7.35;;;6.07;;
39066;SDS011;24821;51.988;6.020;2023-05-15T01:44:33;8.38;;;5.75;;
39066;SDS011;24821;51.988;6.020;2023-05-15T01:47:09;7.50;;;5.82;;
39066;SDS011;24821;51.988;6.020;2023-05-15T01:49:38;6.50;;;5.40;;
39066;SDS011;24821;51.988;6.020;2023-05-15T01:54:40;7.18;;;4.80;;
39066;SDS011;24821;51.988;6.020;2023-05-15T01:57:08;6.63;;;5.65;;
39066;SDS011;24821;51.988;6.020;2023-05-15T01:59:34;6.75;;;5.60;;
39066;SDS011;24821;51.988;6.020;2023-05-15T02:02:01;6.78;;;5.30;;
39066;SDS011;24821;51.988;6.020;2023-05-15T02:04:29;10.43;;;6.80;;
39066;SDS011;24821;51.988;6.020;2023-05-15T02:06:56;7.30;;;5.60;;
39066;SDS011;24821;51.988;6.020;2023-05-15T02:09:23;6.47;;;5.40;;
39066;SDS011;24821;51.988;6.020;2023-05-15T02:11:49;7.20;;;4.63;;
39066;SDS011;24821;51.988;6.020;2023-05-15T02:14:15;17.58;;;5.60;;
39066;SDS011;24821;51.988;6.020;2023-05-15T02:16:42;7.22;;;6.00;;
39066;SDS011;24821;51.988;6.020;2023-05-15T02:19:07;9.38;;;6.35;;
39066;SDS011;24821;51.988;6.020;2023-05-15T02:21:33;7.65;;;5.97;;
39066;SDS011;24821;51.988;6.020;2023-05-15T02:23:59;8.70;;;6.25;;
39066;SDS011;24821;51.988;6.020;2023-05-15T02:26:29;8.10;;;5.85;;
39066;SDS011;24821;51.988;6.020;2023-05-15T02:29:17;9.50;;;6.55;;
39066;SDS011;24821;51.988;6.020;2023-05-15T02:32:20;6.60;;;5.57;;
39066;SDS011;24821;51.988;6.020;2023-05-15T02:37:29;7.85;;;5.85;;
39066;SDS011;24821;51.988;6.020;2023-05-15T02:39:56;9.45;;;6.65;;
39066;SDS011;24821;51.988;6.020;2023-05-15T02:42:24;10.88;;;6.18;;
39066;SDS011;24821;51.988;6.020;2023-05-15T02:44:51;10.43;;;7.20;;
39066;SDS011;24821;51.988;6.020;2023-05-15T02:47:18;8.38;;;6.22;;
39066;SDS011;24821;51.988;6.020;2023-05-15T02:49:44;6.07;;;5.50;;
39066;SDS011;24821;51.988;6.020;2023-05-15T02:52:11;9.13;;;6.47;;
39066;SDS011;24821;51.988;6.020;2023-05-15T02:54:36;9.82;;;6.30;;
39066;SDS011;24821;51.988;6.020;2023-05-15T02:57:02;11.68;;;6.47;;
39066;SDS011;24821;51.988;6.020;2023-05-15T02:59:28;7.78;;;5.85;;
39066;SDS011;24821;51.988;6.020;2023-05-15T03:01:53;7.28;;;6.57;;
39066;SDS011;24821;51.988;6.020;2023-05-15T03:04:19;12.40;;;7.03;;
39066;SDS011;24821;51.988;6.020;2023-05-15T03:06:45;6.43;;;5.38;;
39066;SDS011;24821;51.988;6.020;2023-05-15T03:09:10;10.80;;;5.50;;
39066;SDS011;24821;51.988;6.020;2023-05-15T03:11:36;8.85;;;5.47;;
39066;SDS011;24821;51.988;6.020;2023-05-15T03:14:01;12.75;;;6.10;;
39066;SDS011;24821;51.988;6.020;2023-05-15T03:16:27;6.53;;;5.47;;
39066;SDS011;24821;51.988;6.020;2023-05-15T03:18:53;7.82;;;6.32;;
39066;SDS011;24821;51.988;6.020;2023-05-15T03:21:18;9.15;;;5.75;;
39066;SDS011;24821;51.988;6.020;2023-05-15T03:23:44;11.77;;;6.35;;
39066;SDS011;24821;51.988;6.020;2023-05-15T03:26:10;12.95;;;7.43;;
39066;SDS011;24821;51.988;6.020;2023-05-15T03:28:36;7.38;;;6.10;;
39066;SDS011;24821;51.988;6.020;2023-05-15T03:31:01;11.48;;;5.88;;
39066;SDS011;24821;51.988;6.020;2023-05-15T03:33:29;7.15;;;6.32;;
39066;SDS011;24821;51.988;6.020;2023-05-15T03:35:55;9.02;;;6.90;;
39066;SDS011;24821;51.988;6.020;2023-05-15T03:38:21;8.45;;;6.30;;
39066;SDS011;24821;51.988;6.020;2023-05-15T03:40:46;10.55;;;8.13;;
39066;SDS011;24821;51.988;6.020;2023-05-15T03:43:12;8.23;;;7.32;;
39066;SDS011;24821;51.988;6.020;2023-05-15T03:45:37;10.23;;;7.90;;
39066;SDS011;24821;51.988;6.020;2023-05-15T03:48:04;11.07;;;8.02;;
39066;SDS011;24821;51.988;6.020;2023-05-15T03:50:29;11.57;;;8.02;;
39066;SDS011;24821;51.988;6.020;2023-05-15T03:52:55;13.88;;;10.48;;
39066;SDS011;24821;51.988;6.020;2023-05-15T03:55:21;14.18;;;9.73;;
39066;SDS011;24821;51.988;6.020;2023-05-15T03:57:46;12.98;;;8.32;;
39066;SDS011;24821;51.988;6.020;2023-05-15T04:00:12;16.10;;;10.15;;
39066;SDS011;24821;51.988;6.020;2023-05-15T04:02:38;13.05;;;10.15;;
39066;SDS011;24821;51.988;6.020;2023-05-15T04:05:04;17.05;;;11.40;;
39066;SDS011;24821;51.988;6.020;2023-05-15T04:07:31;16.08;;;9.10;;
39066;SDS011;24821;51.988;6.020;2023-05-15T04:09:58;13.35;;;10.20;;
39066;SDS011;24821;51.988;6.020;2023-05-15T04:12:27;14.23;;;10.93;;
39066;SDS011;24821;51.988;6.020;2023-05-15T04:14:55;11.13;;;9.13;;
39066;SDS011;24821;51.988;6.020;2023-05-15T04:17:22;12.38;;;9.82;;
39066;SDS011;24821;51.988;6.020;2023-05-15T04:19:48;18.17;;;10.45;;
39066;SDS011;24821;51.988;6.020;2023-05-15T04:22:14;11.75;;;8.85;;
39066;SDS011;24821;51.988;6.020;2023-05-15T04:24:39;13.77;;;9.90;;
39066;SDS011;24821;51.988;6.020;2023-05-15T04:27:05;15.10;;;9.90;;
39066;SDS011;24821;51.988;6.020;2023-05-15T04:29:30;13.75;;;9.55;;
39066;SDS011;24821;51.988;6.020;2023-05-15T04:31:57;13.70;;;11.25;;
39066;SDS011;24821;51.988;6.020;2023-05-15T04:34:22;9.77;;;8.88;;
39066;SDS011;24821;51.988;6.020;2023-05-15T04:36:50;14.93;;;10.30;;
39066;SDS011;24821;51.988;6.020;2023-05-15T04:39:16;13.43;;;8.98;;
39066;SDS011;24821;51.988;6.020;2023-05-15T04:41:41;13.10;;;10.32;;
39066;SDS011;24821;51.988;6.020;2023-05-15T04:44:07;13.60;;;10.05;;
39066;SDS011;24821;51.988;6.020;2023-05-15T04:46:32;13.75;;;9.48;;
39066;SDS011;24821;51.988;6.020;2023-05-15T04:49:01;15.82;;;9.80;;
39066;SDS011;24821;51.988;6.020;2023-05-15T04:51:26;17.23;;;9.88;;
39066;SDS011;24821;51.988;6.020;2023-05-15T04:53:52;11.68;;;8.88;;
39066;SDS011;24821;51.988;6.020;2023-05-15T04:56:17;13.23;;;9.18;;
39066;SDS011;24821;51.988;6.020;2023-05-15T04:58:43;16.52;;;10.23;;
39066;SDS011;24821;51.988;6.020;2023-05-15T05:01:08;14.20;;;9.65;;
39066;SDS011;24821;51.988;6.020;2023-05-15T05:03:34;13.02;;;9.13;;
39066;SDS011;24821;51.988;6.020;2023-05-15T05:05:59;12.57;;;9.95;;
39066;SDS011;24821;51.988;6.020;2023-05-15T05:08:25;12.25;;;8.73;;
39066;SDS011;24821;51.988;6.020;2023-05-15T05:10:54;11.68;;;8.70;;
39066;SDS011;24821;51.988;6.020;2023-05-15T05:13:21;14.15;;;10.02;;
39066;SDS011;24821;51.988;6.020;2023-05-15T05:15:46;14.57;;;10.20;;
39066;SDS011;24821;51.988;6.020;2023-05-15T05:18:12;12.02;;;8.63;;
39066;SDS011;24821;51.988;6.020;2023-05-15T05:20:37;12.98;;;8.68;;
39066;SDS011;24821;51.988;6.020;2023-05-15T05:23:03;19.30;;;11.15;;
39066;SDS011;24821;51.988;6.020;2023-05-15T05:25:29;12.48;;;8.98;;
39066;SDS011;24821;51.988;6.020;2023-05-15T05:27:54;15.50;;;11.02;;
39066;SDS011;24821;51.988;6.020;2023-05-15T05:30:20;20.65;;;9.60;;
39066;SDS011;24821;51.988;6.020;2023-05-15T05:32:46;19.35;;;11.43;;
39066;SDS011;24821;51.988;6.020;2023-05-15T05:35:12;10.93;;;9.55;;
39066;SDS011;24821;51.988;6.020;2023-05-15T05:37:37;10.98;;;9.65;;
39066;SDS011;24821;51.988;6.020;2023-05-15T05:40:03;15.32;;;10.02;;
39066;SDS011;24821;51.988;6.020;2023-05-15T05:42:30;16.80;;;10.45;;
39066;SDS011;24821;51.988;6.020;2023-05-15T05:44:56;11.57;;;9.45;;
39066;SDS011;24821;51.988;6.020;2023-05-15T05:47:21;9.45;;;8.18;;
39066;SDS011;24821;51.988;6.020;2023-05-15T05:49:47;11.60;;;8.93;;
39066;SDS011;24821;51.988;6.020;2023-05-15T05:52:13;14.57;;;10.07;;
39066;SDS011;24821;51.988;6.020;2023-05-15T05:54:39;16.50;;;11.02;;
39066;SDS011;24821;51.988;6.020;2023-05-15T05:57:05;15.25;;;10.15;;
39066;SDS011;24821;51.988;6.020;2023-05-15T05:59:31;15.88;;;9.25;;
39066;SDS011;24821;51.988;6.020;2023-05-15T06:01:57;12.73;;;8.40;;
39066;SDS011;24821;51.988;6.020;2023-05-15T06:04:22;11.20;;;8.60;;
39066;SDS011;24821;51.988;6.020;2023-05-15T06:06:48;11.50;;;9.52;;
39066;SDS011;24821;51.988;6.020;2023-05-15T06:09:14;10.45;;;8.00;;
39066;SDS011;24821;51.988;6.020;2023-05-15T06:11:40;10.13;;;8.30;;
39066;SDS011;24821;51.988;6.020;2023-05-15T06:14:06;14.35;;;9.15;;
39066;SDS011;24821;51.988;6.020;2023-05-15T06:16:32;10.77;;;8.02;;
39066;SDS011;24821;51.988;6.020;2023-05-15T06:18:57;11.43;;;9.05;;
39066;SDS011;24821;51.988;6.020;2023-05-15T06:21:23;8.93;;;7.28;;
39066;SDS011;24821;51.988;6.020;2023-05-15T06:23:49;11.68;;;8.77;;
39066;SDS011;24821;51.988;6.020;2023-05-15T06:26:14;8.68;;;7.78;;
39066;SDS011;24821;51.988;6.020;2023-05-15T06:28:40;17.75;;;8.77;;
39066;SDS011;24821;51.988;6.020;2023-05-15T06:31:06;12.80;;;9.60;;
39066;SDS011;24821;51.988;6.020;2023-05-15T06:33:34;10.05;;;7.85;;
39066;SDS011;24821;51.988;6.020;2023-05-15T06:35:59;10.18;;;9.13;;
39066;SDS011;24821;51.988;6.020;2023-05-15T06:38:25;8.98;;;6.93;;
39066;SDS011;24821;51.988;6.020;2023-05-15T06:40:51;11.60;;;7.65;;
39066;SDS011;24821;51.988;6.020;2023-05-15T06:43:16;9.10;;;6.82;;
39066;SDS011;24821;51.988;6.020;2023-05-15T06:45:42;16.27;;;7.05;;
39066;SDS011;24821;51.988;6.020;2023-05-15T06:48:07;10.40;;;7.13;;
39066;SDS011;24821;51.988;6.020;2023-05-15T06:50:36;7.60;;;6.75;;
39066;SDS011;24821;51.988;6.020;2023-05-15T06:53:01;10.18;;;7.57;;
39066;SDS011;24821;51.988;6.020;2023-05-15T06:55:27;10.35;;;7.20;;
39066;SDS011;24821;51.988;6.020;2023-05-15T06:57:52;7.82;;;6.25;;
39066;SDS011;24821;51.988;6.020;2023-05-15T07:00:18;9.50;;;7.28;;
39066;SDS011;24821;51.988;6.020;2023-05-15T07:02:47;7.82;;;7.03;;
39066;SDS011;24821;51.988;6.020;2023-05-15T07:05:12;10.40;;;6.78;;
39066;SDS011;24821;51.988;6.020;2023-05-15T07:07:38;7.03;;;5.40;;
39066;SDS011;24821;51.988;6.020;2023-05-15T07:10:04;7.28;;;6.35;;
39066;SDS011;24821;51.988;6.020;2023-05-15T07:12:30;9.25;;;6.00;;
39066;SDS011;24821;51.988;6.020;2023-05-15T07:14:57;7.60;;;6.28;;
39066;SDS011;24821;51.988;6.020;2023-05-15T07:17:22;6.70;;;5.68;;
39066;SDS011;24821;51.988;6.020;2023-05-15T07:19:48;5.63;;;5.13;;
39066;SDS011;24821;51.988;6.020;2023-05-15T07:22:13;9.10;;;6.40;;
39066;SDS011;24821;51.988;6.020;2023-05-15T07:24:40;8.13;;;6.13;;
39066;SDS011;24821;51.988;6.020;2023-05-15T07:27:05;6.70;;;6.10;;
39066;SDS011;24821;51.988;6.020;2023-05-15T07:29:31;7.18;;;6.18;;
39066;SDS011;24821;51.988;6.020;2023-05-15T07:31:56;8.63;;;6.00;;
39066;SDS011;24821;51.988;6.020;2023-05-15T07:34:22;7.78;;;6.97;;
39066;SDS011;24821;51.988;6.020;2023-05-15T07:36:47;8.40;;;7.60;;
39066;SDS011;24821;51.988;6.020;2023-05-15T07:39:13;10.02;;;8.10;;
39066;SDS011;24821;51.988;6.020;2023-05-15T07:41:39;7.82;;;7.13;;
39066;SDS011;24821;51.988;6.020;2023-05-15T07:44:05;7.53;;;6.75;;
39066;SDS011;24821;51.988;6.020;2023-05-15T07:46:31;13.38;;;7.13;;
39066;SDS011;24821;51.988;6.020;2023-05-15T07:48:57;8.20;;;6.80;;
39066;SDS011;24821;51.988;6.020;2023-05-15T07:51:22;7.85;;;6.90;;
39066;SDS011;24821;51.988;6.020;2023-05-15T07:53:48;9.27;;;6.90;;
39066;SDS011;24821;51.988;6.020;2023-05-15T07:56:14;6.68;;;6.07;;
39066;SDS011;24821;51.988;6.020;2023-05-15T07:58:39;4.78;;;4.38;;
39066;SDS011;24821;51.988;6.020;2023-05-15T08:01:05;6.25;;;4.80;;
39066;SDS011;24821;51.988;6.020;2023-05-15T08:03:31;6.47;;;5.75;;
39066;SDS011;24821;51.988;6.020;2023-05-15T08:05:57;4.95;;;3.63;;
39066;SDS011;24821;51.988;6.020;2023-05-15T08:08:23;4.00;;;3.60;;
39066;SDS011;24821;51.988;6.020;2023-05-15T08:10:49;5.93;;;4.18;;
39066;SDS011;24821;51.988;6.020;2023-05-15T08:13:15;5.00;;;4.05;;
39066;SDS011;24821;51.988;6.020;2023-05-15T08:15:40;6.20;;;5.55;;
39066;SDS011;24821;51.988;6.020;2023-05-15T08:18:07;7.28;;;5.97;;
39066;SDS011;24821;51.988;6.020;2023-05-15T08:20:36;7.15;;;5.90;;
39066;SDS011;24821;51.988;6.020;2023-05-15T08:23:02;7.90;;;7.28;;
39066;SDS011;24821;51.988;6.020;2023-05-15T08:25:28;8.00;;;7.40;;
39066;SDS011;24821;51.988;6.020;2023-05-15T08:27:54;9.52;;;8.13;;
39066;SDS011;24821;51.988;6.020;2023-05-15T08:30:19;8.60;;;7.75;;
39066;SDS011;24821;51.988;6.020;2023-05-15T08:32:45;8.45;;;7.65;;
39066;SDS011;24821;51.988;6.020;2023-05-15T08:35:12;8.57;;;7.22;;
39066;SDS011;24821;51.988;6.020;2023-05-15T08:37:38;6.70;;;6.10;;
39066;SDS011;24821;51.988;6.020;2023-05-15T08:40:04;6.45;;;5.30;;
39066;SDS011;24821;51.988;6.020;2023-05-15T08:42:34;5.72;;;5.18;;
39066;SDS011;24821;51.988;6.020;2023-05-15T08:45:13;7.00;;;5.80;;
39066;SDS011;24821;51.988;6.020;2023-05-15T08:47:40;5.50;;;4.22;;
39066;SDS011;24821;51.988;6.020;2023-05-15T08:52:37;6.45;;;5.60;;
39066;SDS011;24821;51.988;6.020;2023-05-15T08:55:09;8.70;;;6.25;;
39066;SDS011;24821;51.988;6.020;2023-05-15T08:57:35;5.72;;;4.90;;
39066;SDS011;24821;51.988;6.020;2023-05-15T09:00:02;18.88;;;6.85;;
39066;SDS011;24821;51.988;6.020;2023-05-15T09:02:31;6.30;;;5.65;;
39066;SDS011;24821;51.988;6.020;2023-05-15T09:04:57;11.23;;;6.30;;
39066;SDS011;24821;51.988;6.020;2023-05-15T09:07:23;9.95;;;5.07;;
39066;SDS011;24821;51.988;6.020;2023-05-15T09:09:49;6.50;;;5.07;;
39066;SDS011;24821;51.988;6.020;2023-05-15T09:12:16;6.78;;;4.72;;
39066;SDS011;24821;51.988;6.020;2023-05-15T09:14:42;6.55;;;5.95;;
39066;SDS011;24821;51.988;6.020;2023-05-15T09:17:11;11.85;;;5.50;;
39066;SDS011;24821;51.988;6.020;2023-05-15T09:19:40;6.32;;;5.40;;
39066;SDS011;24821;51.988;6.020;2023-05-15T09:22:15;6.05;;;4.70;;
39066;SDS011;24821;51.988;6.020;2023-05-15T09:24:44;6.47;;;4.72;;
39066;SDS011;24821;51.988;6.020;2023-05-15T09:27:12;6.88;;;4.38;;
39066;SDS011;24821;51.988;6.020;2023-05-15T09:29:38;6.85;;;4.18;;
39066;SDS011;24821;51.988;6.020;2023-05-15T09:32:22;6.30;;;4.47;;
39066;SDS011;24821;51.988;6.020;2023-05-15T09:34:51;7.28;;;5.47;;
39066;SDS011;24821;51.988;6.020;2023-05-15T09:37:27;6.88;;;5.53;;
39066;SDS011;24821;51.988;6.020;2023-05-15T09:39:55;4.72;;;3.40;;
39066;SDS011;24821;51.988;6.020;2023-05-15T09:42:32;6.45;;;5.78;;
39066;SDS011;24821;51.988;6.020;2023-05-15T09:44:59;5.03;;;4.63;;
39066;SDS011;24821;51.988;6.020;2023-05-15T09:47:24;8.50;;;5.07;;
39066;SDS011;24821;51.988;6.020;2023-05-15T09:49:50;3.60;;;3.28;;
39066;SDS011;24821;51.988;6.020;2023-05-15T09:52:17;3.83;;;3.10;;
39066;SDS011;24821;51.988;6.020;2023-05-15T09:54:44;4.90;;;3.58;;
39066;SDS011;24821;51.988;6.020;2023-05-15T09:57:11;3.80;;;3.40;;
39066;SDS011;24821;51.988;6.020;2023-05-15T09:59:47;3.13;;;2.72;;
39066;SDS011;24821;51.988;6.020;2023-05-15T10:02:22;3.83;;;2.88;;
39066;SDS011;24821;51.988;6.020;2023-05-15T10:04:53;3.03;;;2.78;;
39066;SDS011;24821;51.988;6.020;2023-05-15T10:07:26;5.90;;;3.25;;
39066;SDS011;24821;51.988;6.020;2023-05-15T10:09:53;3.67;;;3.38;;
39066;SDS011;24821;51.988;6.020;2023-05-15T10:12:18;8.38;;;4.70;;
39066;SDS011;24821;51.988;6.020;2023-05-15T10:14:44;4.07;;;3.15;;
39066;SDS011;24821;51.988;6.020;2023-05-15T10:17:11;3.95;;;3.33;;
39066;SDS011;24821;51.988;6.020;2023-05-15T10:19:38;3.50;;;2.85;;
39066;SDS011;24821;51.988;6.020;2023-05-15T10:22:04;4.22;;;3.13;;
39066;SDS011;24821;51.988;6.020;2023-05-15T10:24:31;6.07;;;4.55;;
39066;SDS011;24821;51.988;6.020;2023-05-15T10:26:57;7.45;;;5.25;;
39066;SDS011;24821;51.988;6.020;2023-05-15T10:29:23;7.40;;;5.47;;
39066;SDS011;24821;51.988;6.020;2023-05-15T10:31:51;5.95;;;4.53;;
39066;SDS011;24821;51.988;6.020;2023-05-15T10:34:17;4.65;;;4.15;;
39066;SDS011;24821;51.988;6.020;2023-05-15T10:36:44;5.05;;;4.45;;
39066;SDS011;24821;51.988;6.020;2023-05-15T10:39:10;6.22;;;4.60;;
39066;SDS011;24821;51.988;6.020;2023-05-15T10:41:36;4.47;;;4.07;;
39066;SDS011;24821;51.988;6.020;2023-05-15T10:44:03;5.05;;;4.53;;
39066;SDS011;24821;51.988;6.020;2023-05-15T10:46:30;6.13;;;4.75;;
39066;SDS011;24821;51.988;6.020;2023-05-15T10:48:58;4.88;;;4.47;;
39066;SDS011;24821;51.988;6.020;2023-05-15T10:51:29;7.10;;;4.15;;
39066;SDS011;24821;51.988;6.020;2023-05-15T10:53:56;4.70;;;3.90;;
39066;SDS011;24821;51.988;6.020;2023-05-15T10:56:30;4.85;;;4.13;;
39066;SDS011;24821;51.988;6.020;2023-05-15T10:58:57;5.13;;;4.55;;
39066;SDS011;24821;51.988;6.020;2023-05-15T11:01:30;8.02;;;5.88;;
39066;SDS011;24821;51.988;6.020;2023-05-15T11:06:36;13.07;;;7.05;;
39066;SDS011;24821;51.988;6.020;2023-05-15T11:14:20;18.88;;;5.65;;
39066;SDS011;24821;51.988;6.020;2023-05-15T11:21:56;6.30;;;4.30;;
39066;SDS011;24821;51.988;6.020;2023-05-15T11:25:05;5.20;;;3.28;;
39066;SDS011;24821;51.988;6.020;2023-05-15T11:27:11;4.13;;;3.10;;
39066;SDS011;24821;51.988;6.020;2023-05-15T11:30:23;3.70;;;3.40;;
39066;SDS011;24821;51.988;6.020;2023-05-15T11:37:58;5.28;;;4.35;;
39066;SDS011;24821;51.988;6.020;2023-05-15T11:45:42;5.30;;;3.72;;
39066;SDS011;24821;51.988;6.020;2023-05-15T11:48:16;7.30;;;5.22;;
39066;SDS011;24821;51.988;6.020;2023-05-15T11:50:43;4.85;;;3.97;;
39066;SDS011;24821;51.988;6.020;2023-05-15T11:53:09;5.30;;;4.10;;
39066;SDS011;24821;51.988;6.020;2023-05-15T11:55:36;7.80;;;3.88;;
39066;SDS011;24821;51.988;6.020;2023-05-15T11:58:11;8.55;;;4.85;;
39066;SDS011;24821;51.988;6.020;2023-05-15T12:00:38;6.78;;;6.07;;
39066;SDS011;24821;51.988;6.020;2023-05-15T12:03:04;7.15;;;5.72;;
39066;SDS011;24821;51.988;6.020;2023-05-15T12:05:30;6.63;;;5.93;;
39066;SDS011;24821;51.988;6.020;2023-05-15T12:07:56;6.97;;;6.03;;
39066;SDS011;24821;51.988;6.020;2023-05-15T12:10:22;7.28;;;5.35;;
39066;SDS011;24821;51.988;6.020;2023-05-15T12:12:48;10.32;;;6.15;;
39066;SDS011;24821;51.988;6.020;2023-05-15T12:15:14;7.30;;;6.28;;
39066;SDS011;24821;51.988;6.020;2023-05-15T12:17:41;13.70;;;8.07;;
39066;SDS011;24821;51.988;6.020;2023-05-15T12:20:18;10.35;;;8.02;;
39066;SDS011;24821;51.988;6.020;2023-05-15T12:22:44;14.52;;;8.10;;
39066;SDS011;24821;51.988;6.020;2023-05-15T12:25:10;14.20;;;8.93;;
39066;SDS011;24821;51.988;6.020;2023-05-15T12:27:39;14.02;;;8.80;;
39066;SDS011;24821;51.988;6.020;2023-05-15T12:30:05;11.57;;;9.43;;
39066;SDS011;24821;51.988;6.020;2023-05-15T12:32:32;16.45;;;10.18;;
39066;SDS011;24821;51.988;6.020;2023-05-15T12:35:00;14.95;;;9.38;;
39066;SDS011;24821;51.988;6.020;2023-05-15T12:37:29;10.68;;;9.57;;
39066;SDS011;24821;51.988;6.020;2023-05-15T12:40:00;11.95;;;10.15;;
39066;SDS011;24821;51.988;6.020;2023-05-15T12:42:44;12.88;;;9.48;;
39066;SDS011;24821;51.988;6.020;2023-05-15T12:45:19;12.70;;;9.68;;
39066;SDS011;24821;51.988;6.020;2023-05-15T12:47:46;12.38;;;9.27;;
39066;SDS011;24821;51.988;6.020;2023-05-15T12:50:13;9.82;;;8.82;;
39066;SDS011;24821;51.988;6.020;2023-05-15T12:53:06;11.98;;;9.77;;
39066;SDS011;24821;51.988;6.020;2023-05-15T12:55:32;10.93;;;8.80;;
39066;SDS011;24821;51.988;6.020;2023-05-15T12:58:00;11.65;;;9.90;;
39066;SDS011;24821;51.988;6.020;2023-05-15T13:00:32;12.85;;;10.70;;
39066;SDS011;24821;51.988;6.020;2023-05-15T13:03:02;16.73;;;10.25;;
39066;SDS011;24821;51.988;6.020;2023-05-15T13:05:32;11.57;;;10.15;;
39066;SDS011;24821;51.988;6.020;2023-05-15T13:07:59;14.82;;;9.25;;
39066;SDS011;24821;51.988;6.020;2023-05-15T13:10:26;13.82;;;10.75;;
39066;SDS011;24821;51.988;6.020;2023-05-15T13:12:52;11.77;;;10.45;;
39066;SDS011;24821;51.988;6.020;2023-05-15T13:18:02;15.45;;;11.00;;
39066;SDS011;24821;51.988;6.020;2023-05-15T13:20:36;15.95;;;10.57;;
39066;SDS011;24821;51.988;6.020;2023-05-15T13:23:06;13.88;;;10.20;;
39066;SDS011;24821;51.988;6.020;2023-05-15T13:25:40;13.32;;;10.18;;
39066;SDS011;24821;51.988;6.020;2023-05-15T13:28:06;13.52;;;11.50;;
39066;SDS011;24821;51.988;6.020;2023-05-15T13:30:37;14.73;;;10.38;;
39066;SDS011;24821;51.988;6.020;2023-05-15T13:33:06;12.43;;;9.25;;
39066;SDS011;24821;51.988;6.020;2023-05-15T13:35:36;12.65;;;10.35;;
39066;SDS011;24821;51.988;6.020;2023-05-15T13:38:06;11.55;;;9.63;;
39066;SDS011;24821;51.988;6.020;2023-05-15T13:40:32;15.18;;;10.13;;
39066;SDS011;24821;51.988;6.020;2023-05-15T13:43:01;19.65;;;10.73;;
39066;SDS011;24821;51.988;6.020;2023-05-15T13:45:26;12.00;;;10.40;;
39066;SDS011;24821;51.988;6.020;2023-05-15T13:47:53;14.13;;;11.07;;
39066;SDS011;24821;51.988;6.020;2023-05-15T13:50:19;13.57;;;10.68;;
39066;SDS011;24821;51.988;6.020;2023-05-15T13:52:45;16.13;;;11.82;;
39066;SDS011;24821;51.988;6.020;2023-05-15T13:55:11;13.00;;;10.90;;
39066;SDS011;24821;51.988;6.020;2023-05-15T13:57:37;16.95;;;13.23;;
39066;SDS011;24821;51.988;6.020;2023-05-15T14:00:04;15.15;;;12.02;;
39066;SDS011;24821;51.988;6.020;2023-05-15T14:02:31;14.68;;;12.57;;
39066;SDS011;24821;51.988;6.020;2023-05-15T14:04:57;12.90;;;11.57;;
39066;SDS011;24821;51.988;6.020;2023-05-15T14:07:23;16.42;;;14.13;;
39066;SDS011;24821;51.988;6.020;2023-05-15T14:09:49;16.10;;;13.48;;
39066;SDS011;24821;51.988;6.020;2023-05-15T14:12:15;17.55;;;11.90;;
39066;SDS011;24821;51.988;6.020;2023-05-15T14:14:41;20.42;;;13.38;;
39066;SDS011;24821;51.988;6.020;2023-05-15T14:17:08;14.52;;;10.38;;
39066;SDS011;24821;51.988;6.020;2023-05-15T14:19:34;12.40;;;10.90;;
39066;SDS011;24821;51.988;6.020;2023-05-15T14:22:00;14.27;;;11.13;;
39066;SDS011;24821;51.988;6.020;2023-05-15T14:24:25;13.75;;;11.43;;
39066;SDS011;24821;51.988;6.020;2023-05-15T14:26:51;14.85;;;12.30;;
39066;SDS011;24821;51.988;6.020;2023-05-15T14:29:16;11.98;;;9.98;;
39066;SDS011;24821;51.988;6.020;2023-05-15T14:31:42;11.57;;;9.48;;
39066;SDS011;24821;51.988;6.020;2023-05-15T14:34:10;12.85;;;10.00;;
39066;SDS011;24821;51.988;6.020;2023-05-15T14:36:36;10.70;;;8.70;;
39066;SDS011;24821;51.988;6.020;2023-05-15T14:39:02;15.45;;;9.55;;
39066;SDS011;24821;51.988;6.020;2023-05-15T14:41:28;13.15;;;9.05;;
39066;SDS011;24821;51.988;6.020;2023-05-15T14:43:53;12.48;;;10.63;;
39066;SDS011;24821;51.988;6.020;2023-05-15T14:46:19;12.35;;;9.32;;
39066;SDS011;24821;51.988;6.020;2023-05-15T14:48:45;13.75;;;9.88;;
39066;SDS011;24821;51.988;6.020;2023-05-15T14:51:10;13.88;;;9.73;;
39066;SDS011;24821;51.988;6.020;2023-05-15T14:53:36;9.05;;;8.13;;
39066;SDS011;24821;51.988;6.020;2023-05-15T14:56:02;9.27;;;7.32;;
39066;SDS011;24821;51.988;6.020;2023-05-15T14:58:27;8.48;;;6.30;;
39066;SDS011;24821;51.988;6.020;2023-05-15T15:00:54;7.72;;;6.95;;
39066;SDS011;24821;51.988;6.020;2023-05-15T15:03:20;6.75;;;6.07;;
39066;SDS011;24821;51.988;6.020;2023-05-15T15:05:46;8.15;;;6.57;;
39066;SDS011;24821;51.988;6.020;2023-05-15T15:08:12;7.65;;;6.13;;
39066;SDS011;24821;51.988;6.020;2023-05-15T15:10:39;5.70;;;5.20;;
39066;SDS011;24821;51.988;6.020;2023-05-15T15:13:05;5.20;;;4.72;;
39066;SDS011;24821;51.988;6.020;2023-05-15T15:15:32;5.20;;;4.70;;
39066;SDS011;24821;51.988;6.020;2023-05-15T15:17:58;4.70;;;4.32;;
39066;SDS011;24821;51.988;6.020;2023-05-15T15:20:25;5.53;;;4.38;;